Rocky Grove, Pennsylvania
Current Conditions -  °F | °C
As of 2:35 PM on Tuesday 21 Oct 2014 (Local Time) from KFKL Reporting Station
Overcast Overcast  
Wind Chill: 45°   Ceiling: 600
Heat Index: 48°   Visibility: 10mi
Dew Point: 45°   Wind: 7mph
Humidity: 87%   Direction: 310°NW
Pressure: 29.9"   Gusts: NA
Location:  41.4663°N, 79.8305°W
Report Text: KFKL 211835Z 31006KT 10SM BKN006 OVC014 09/07 A2990 RMK AO1 P0005
Loading
Personal Weather Stations






























Interactive Weather Map New forecast layout! Learn more

10-Day Weather Forecast

Advertisements
Track Severe Weather on mobile